Calgary Springbank Airport
CYBW : now visible

Airfield :











YOU CAN JOIN US ON...

 
LOGIN :

Register | Disclaimer

   EN    FR    IT 

 









Legend :    VFR   Marginal VFR   IFR   Intensive IFR   Very Intensive IFR
Visi :
Ceiling :
>= 8 km
>= 3000ft
5 to 8 km
1000 to 3000 ft
1500m to 5 km
500 to 1000 ft
800 to 1500m
200 to 500 ft
< 800m
< 200 ft
Symbols :   Thunderstorms  Fog  Heavy snow  Heavy precipitations  Wind > 20 kt






- Airport Elevation : 3937 ft
- IATA code : YBW


CYBW - Calgary Springbank

CURRENT METAR :
  • 070400Z AUTO 17007KT 9SM OVC081 M22/M25 A2971 RMK SLP176

EXPIRED METARs :
  • 070300Z AUTO 16007KT 9SM OVC086 M22/M25 A2974 RMK SLP189
  • 070200Z AUTO 15010KT 9SM FEW066 OVC089 M22/M25 A2975 RMK SLP194
  • 070100Z AUTO 17008KT 9SM FEW060 OVC080 M22/M25 A2977 RMK SLP201

TAF TAF CYBW
Valid from the 07 at 00:00 until the 07 at 05:00 UTC


062340Z 0700/0705 15010KT P6SM SCT020 OVC040
TEMPO 0700/0705 5SM -SN IC BR OVC020 RMK FCST BASED ON AUTO OBS. NXT FCST BY 071300Z
CZEG FIR / North America



MET'MAP, your aeronautical weather chart ! - Copyright ORBIFLY December 2007 - Disclaimer

ORBIFLY MET'MAP TEAM :

Programming & Development : Alexandra Zaïnal
Original concept : Baudouin d'Aumeries
Technical & hardware support : Manuel Goepfert
Assistance : Marc-Olivier Méhu




SOURCES & CREDITS :

   NOAA       Earth
Advisory